createdAt,value
2023-09-29T00:03:33.369Z,12.30
2023-09-29T00:08:37.358Z,12.93
2023-09-29T00:13:43.078Z,13.47
2023-09-29T00:18:46.169Z,14.47
2023-09-29T00:23:49.549Z,14.17
2023-09-29T00:28:54.649Z,13.03
2023-09-29T00:33:58.260Z,14.50
2023-09-29T00:39:01.401Z,12.23
2023-09-29T00:44:07.944Z,13.13
2023-09-29T00:49:12.509Z,12.60
2023-09-29T00:54:16.458Z,13.00
2023-09-29T00:59:20.949Z,14.57
2023-09-29T01:04:24.689Z,14.77
2023-09-29T01:09:28.104Z,14.97
2023-09-29T01:14:33.376Z,15.07
2023-09-29T01:19:36.910Z,14.63
2023-09-29T01:24:41.363Z,14.47
2023-09-29T01:29:45.278Z,14.83
2023-09-29T01:34:48.603Z,14.73
2023-09-29T01:39:53.059Z,16.07
2023-09-29T01:44:56.195Z,15.50
2023-09-29T01:50:00.419Z,14.40
2023-09-29T01:55:07.545Z,16.27
2023-09-29T02:00:16.600Z,16.77
2023-09-29T02:05:19.839Z,14.70
2023-09-29T02:10:25.974Z,15.00
2023-09-29T02:15:30.311Z,14.37
2023-09-29T02:20:37.035Z,14.47
2023-09-29T02:25:42.997Z,13.70
2023-09-29T02:30:47.894Z,14.63
2023-09-29T02:35:51.535Z,13.03
2023-09-29T02:40:56.166Z,14.20
2023-09-29T02:45:59.315Z,13.83
2023-09-29T02:51:02.454Z,14.53
2023-09-29T02:56:07.947Z,14.50
2023-09-29T03:01:13.088Z,14.33
2023-09-29T03:06:20.135Z,14.00
2023-09-29T03:11:26.920Z,13.27
2023-09-29T03:16:30.659Z,11.90
2023-09-29T03:21:34.417Z,14.20
2023-09-29T03:26:39.302Z,14.43
2023-09-29T03:31:42.427Z,14.13
2023-09-29T03:36:45.522Z,13.90
2023-09-29T03:41:50.005Z,13.53
2023-09-29T03:46:55.054Z,13.03
2023-09-29T03:51:58.511Z,13.37
2023-09-29T03:57:05.794Z,12.70
2023-09-29T04:02:09.135Z,13.87
2023-09-29T04:07:12.797Z,13.87
2023-09-29T04:12:17.875Z,13.63
2023-09-29T04:17:21.339Z,13.83
2023-09-29T04:22:25.149Z,15.43
2023-09-29T04:27:29.804Z,16.10
2023-09-29T04:32:32.918Z,17.10
2023-09-29T04:37:36.452Z,17.10
2023-09-29T04:42:41.374Z,17.13
2023-09-29T04:47:44.557Z,17.80
2023-09-29T04:52:47.691Z,18.67
2023-09-29T04:57:53.759Z,18.13
2023-09-29T05:02:57.200Z,18.23
2023-09-29T05:08:00.485Z,16.97
2023-09-29T05:13:05.275Z,15.70
2023-09-29T05:18:08.525Z,15.30
2023-09-29T05:23:11.675Z,13.97
2023-09-29T05:28:16.210Z,16.10
2023-09-29T05:33:19.368Z,15.03
2023-09-29T05:38:22.519Z,14.93
2023-09-29T05:43:27.252Z,14.40
2023-09-29T05:48:30.603Z,14.53
2023-09-29T05:53:33.812Z,14.13
2023-09-29T05:58:39.174Z,15.03
2023-09-29T06:03:42.939Z,15.03
2023-09-29T06:08:55.228Z,14.70
2023-09-29T06:14:00.170Z,14.37
2023-09-29T06:19:03.269Z,14.97
2023-09-29T06:24:07.118Z,15.50
2023-09-29T06:29:11.703Z,15.43
2023-09-29T06:34:15.618Z,15.73
2023-09-29T06:39:19.425Z,15.93
2023-09-29T06:44:24.315Z,15.47
2023-09-29T06:49:27.450Z,16.13
2023-09-29T06:54:30.833Z,17.30
2023-09-29T06:59:35.292Z,16.80
2023-09-29T07:04:38.456Z,16.27
2023-09-29T07:09:41.562Z,16.20
2023-09-29T07:14:46.140Z,16.00
2023-09-29T07:19:49.360Z,15.97
2023-09-29T07:24:59.200Z,15.70
2023-09-29T07:30:04.735Z,16.00
2023-09-29T07:35:08.632Z,15.40
2023-09-29T07:40:13.661Z,15.90
2023-09-29T07:45:18.744Z,15.40
2023-09-29T07:50:22.358Z,16.17
2023-09-29T07:55:26.014Z,15.00
2023-09-29T08:00:30.729Z,15.33
2023-09-29T08:05:33.861Z,16.63
2023-09-29T08:10:37.005Z,15.83
2023-09-29T08:15:41.707Z,15.70
2023-09-29T08:20:45.104Z,14.53
2023-09-29T08:25:48.457Z,13.57
2023-09-29T08:30:52.950Z,14.15
2023-09-29T08:35:56.969Z,13.32
2023-09-29T08:41:03.930Z,15.98
2023-09-29T08:46:11.235Z,13.05
2023-09-29T08:51:15.137Z,12.73
2023-09-29T08:56:19.952Z,13.13
2023-09-29T09:01:25.185Z,13.13
2023-09-29T09:06:29.235Z,12.27
2023-09-29T09:11:42.821Z,11.00
2023-09-29T09:16:47.372Z,11.88
2023-09-29T09:21:50.516Z,9.80
2023-09-29T09:27:02.693Z,9.82
2023-09-29T09:32:08.096Z,9.25
2023-09-29T09:37:13.882Z,9.40
2023-09-29T09:42:18.253Z,8.50
2023-09-29T09:47:26.728Z,13.65
2023-09-29T09:52:31.582Z,9.75
2023-09-29T09:57:35.986Z,9.10
2023-09-29T10:02:45.064Z,8.43
2023-09-29T10:07:48.897Z,9.35
2023-09-29T10:12:55.958Z,8.75
2023-09-29T10:18:00.855Z,8.18
2023-09-29T10:23:07.469Z,7.55
2023-09-29T10:28:13.507Z,7.55
2023-09-29T10:33:18.302Z,8.13
2023-09-29T10:38:25.865Z,7.90
2023-09-29T10:43:28.998Z,8.57
2023-09-29T10:48:34.732Z,7.70
2023-09-29T10:53:40.009Z,10.13
2023-09-29T10:58:43.553Z,10.55
2023-09-29T11:03:48.279Z,9.00
2023-09-29T11:08:56.380Z,8.45
2023-09-29T11:14:00.106Z,9.55
2023-09-29T11:19:13.170Z,7.00
2023-09-29T11:24:20.335Z,7.55
2023-09-29T11:29:24.642Z,12.55
2023-09-29T11:34:30.956Z,8.75
2023-09-29T11:39:35.037Z,8.90
2023-09-29T11:44:38.142Z,7.25
2023-09-29T11:49:42.955Z,9.98
2023-09-29T11:54:46.053Z,8.35
2023-09-29T11:59:49.218Z,7.07
2023-09-29T12:04:53.711Z,7.50
2023-09-29T12:09:57.051Z,6.85
2023-09-29T12:15:01.036Z,6.50
2023-09-29T12:20:09.246Z,8.32
2023-09-29T12:25:13.832Z,6.93
2023-09-29T12:30:18.905Z,7.20
2023-09-29T12:35:23.509Z,7.75
2023-09-29T12:40:26.761Z,6.63
2023-09-29T12:45:29.865Z,5.88
2023-09-29T12:50:40.031Z,6.97
2023-09-29T12:55:43.422Z,5.68
2023-09-29T13:00:47.844Z,5.45
2023-09-29T13:05:52.879Z,6.50
2023-09-29T13:10:56.702Z,5.28
2023-09-29T13:16:01.217Z,5.47
2023-09-29T13:21:05.940Z,4.80
2023-09-29T13:26:09.242Z,5.63
2023-09-29T13:31:12.371Z,7.97
2023-09-29T13:36:16.921Z,5.82
2023-09-29T13:41:20.363Z,4.28
2023-09-29T13:46:23.721Z,4.05
2023-09-29T13:51:28.512Z,4.82
2023-09-29T13:56:32.823Z,5.40
2023-09-29T14:01:36.119Z,7.60
2023-09-29T14:06:40.607Z,7.25
2023-09-29T14:11:43.708Z,8.27
2023-09-29T14:16:47.568Z,9.77
2023-09-29T14:21:52.012Z,14.15
2023-09-29T14:26:55.185Z,10.90
2023-09-29T14:31:58.395Z,9.52
2023-09-29T14:37:03.831Z,12.35
2023-09-29T14:42:06.984Z,16.23
2023-09-29T14:47:10.106Z,18.83
2023-09-29T14:52:14.554Z,21.23
2023-09-29T14:57:19.271Z,20.92
2023-09-29T15:02:22.400Z,23.92
2023-09-29T15:07:27.211Z,23.75
2023-09-29T15:12:30.431Z,21.35
2023-09-29T15:17:33.568Z,22.52
2023-09-29T15:22:37.997Z,19.40
2023-09-29T15:27:41.970Z,21.17
2023-09-29T15:32:45.160Z,19.67
2023-09-29T15:37:49.610Z,19.58
2023-09-29T15:42:52.978Z,23.58
2023-09-29T15:47:57.137Z,21.60
2023-09-29T15:53:02.025Z,20.50
2023-09-29T15:58:05.848Z,17.02
2023-09-29T16:03:09.112Z,16.48
2023-09-29T16:08:13.525Z,16.95
2023-09-29T16:13:18.168Z,17.77
2023-09-29T16:18:21.659Z,19.27
2023-09-29T16:23:27.541Z,19.45
2023-09-29T16:28:30.665Z,17.55
2023-09-29T16:33:33.840Z,18.00
2023-09-29T16:38:38.802Z,16.13
2023-09-29T16:43:42.974Z,15.02
2023-09-29T16:48:48.259Z,13.63
2023-09-29T16:53:52.714Z,15.73
2023-09-29T16:58:56.942Z,16.55
2023-09-29T17:04:00.228Z,13.35
2023-09-29T17:09:05.269Z,21.60
2023-09-29T17:14:08.895Z,13.88
2023-09-29T17:19:12.299Z,13.90
2023-09-29T17:24:16.817Z,16.75
2023-09-29T17:29:19.933Z,15.07
2023-09-29T17:34:23.032Z,14.75
2023-09-29T17:39:28.283Z,13.57
2023-09-29T17:44:31.452Z,13.45
2023-09-29T17:49:34.952Z,14.33
2023-09-29T17:54:39.441Z,13.32
2023-09-29T17:59:42.591Z,13.32
2023-09-29T18:04:46.591Z,12.23
2023-09-29T18:09:51.168Z,10.77
2023-09-29T18:14:54.847Z,12.45
2023-09-29T18:19:58.396Z,13.27
2023-09-29T18:25:03.379Z,10.60
2023-09-29T18:30:07.999Z,11.53
2023-09-29T18:35:12.399Z,11.23
2023-09-29T18:40:17.359Z,11.53
2023-09-29T18:45:20.638Z,14.83
2023-09-29T18:50:25.205Z,11.80
2023-09-29T18:55:29.859Z,9.90
2023-09-29T19:00:33.801Z,10.70
2023-09-29T19:05:38.882Z,10.83
2023-09-29T19:10:44.151Z,12.77
2023-09-29T19:15:49.110Z,10.60
2023-09-29T19:20:53.920Z,11.10
2023-09-29T19:26:01.418Z,9.63
2023-09-29T19:31:04.540Z,7.63
2023-09-29T19:36:08.133Z,7.97
2023-09-29T19:41:15.094Z,6.63
2023-09-29T19:46:18.442Z,6.40
2023-09-29T19:51:23.144Z,6.87
2023-09-29T19:56:34.206Z,7.10
2023-09-29T20:01:37.632Z,7.27
2023-09-29T20:06:40.740Z,5.63
2023-09-29T20:11:45.226Z,5.30
2023-09-29T20:16:48.588Z,5.07
2023-09-29T20:21:51.830Z,5.27
2023-09-29T20:26:56.640Z,4.70
2023-09-29T20:32:00.018Z,7.07
2023-09-29T20:37:03.226Z,6.73
2023-09-29T20:42:13.053Z,6.47
2023-09-29T20:47:16.183Z,5.67
2023-09-29T20:52:19.682Z,5.33
2023-09-29T20:57:25.231Z,5.90
2023-09-29T21:02:28.376Z,7.30
2023-09-29T21:07:31.438Z,5.77
2023-09-29T21:12:35.917Z,5.87
2023-09-29T21:17:39.301Z,4.83
2023-09-29T21:22:44.159Z,5.57
2023-09-29T21:27:48.910Z,5.00
2023-09-29T21:32:52.700Z,7.07
2023-09-29T21:37:56.182Z,6.07
2023-09-29T21:43:00.615Z,4.67
2023-09-29T21:48:03.981Z,5.87
2023-09-29T21:53:07.483Z,6.07
2023-09-29T21:58:11.927Z,7.73
2023-09-29T22:03:15.311Z,8.30
2023-09-29T22:08:18.765Z,7.10
2023-09-29T22:13:23.854Z,7.00
2023-09-29T22:18:27.249Z,8.47
2023-09-29T22:23:31.962Z,9.23
2023-09-29T22:28:37.171Z,9.43
2023-09-29T22:33:40.422Z,7.97
2023-09-29T22:38:43.722Z,9.67
2023-09-29T22:43:48.752Z,10.10
2023-09-29T22:48:52.129Z,10.87
2023-09-29T22:53:56.078Z,11.80
2023-09-29T22:59:00.786Z,10.87
2023-09-29T23:04:04.541Z,11.50
2023-09-29T23:09:08.479Z,11.47
2023-09-29T23:14:15.804Z,13.83
2023-09-29T23:19:18.886Z,14.03
2023-09-29T23:24:22.467Z,13.63
2023-09-29T23:29:28.396Z,14.27
2023-09-29T23:34:31.534Z,13.27
2023-09-29T23:39:34.742Z,13.47
2023-09-29T23:44:39.704Z,13.10
2023-09-29T23:49:43.034Z,12.00
2023-09-29T23:54:47.658Z,12.20
2023-09-29T23:59:52.098Z,13.63
